Nearby METAR Data
EGNX - East Midlands, United Kingdom
Distance from station: SSE 24mi, 39km
Updated: 24/03/2019 06:50
Clear
Clear
 Wind from W
Wind: W 8 mph , 13 km/h
Temperature: 2°C
Wind Chill: -1°C
Dew Point: 0°C
Humidity: 87%
Barometer: 1031 hPa
Summary: Clear
Visibility: greater than 7 miles , 10 km
2019/03/24 06:50 EGNX 240650Z 26007KT CAVOK 02/M00 Q1031
EGCN - Doncaster Sheffi, United Kingdom
Distance from station: NE 31mi, 49km
Updated: 24/03/2019 06:50
Clear
Clear
 Wind from W
Wind: W 7 mph , 11 km/h
Temperature: 3°C
Wind Chill: 0°C
Dew Point: 0°C
Humidity: 81%
Barometer: 1031 hPa
Summary: Clear
Visibility: greater than 7 miles , 10 km
2019/03/24 06:50 EGCN 240650Z 27006KT CAVOK 03/M00 Q1031
 
EGXS - Swinderby Raf, United Kingdom
Distance from station: E 33mi, 54km
Updated: 24/03/2019 06:50
Clear
Clear
 Wind from WSW
Wind: WSW 6 mph , 9 km/h
Temperature: 3°C
Wind Chill: 0°C
Dew Point: 1°C
Humidity: 87%
Barometer: 1030 hPa
Clouds: Clear
Visibility: 6 miles , 10 km
2019/03/24 06:50 EGXS 240650Z AUTO 25005KT 9999 // NCD 03/01 Q1030
EGCC - Manchester Intl, United Kingdom
Distance from station: WNW 35mi, 56km
Updated: 24/03/2019 06:50
Partly Cloudy
Partly Cloudy
 Wind from SSE
Wind: SSE 5 mph , 7 km/h
Temperature: 1°C
Wind Chill: -2°C
Dew Point: 0°C
Humidity: 93%
Barometer: 1031 hPa
Clouds: Partly Cloudy
Visibility: 6 miles , 10 km
Cloud details: Partly Cloudy 1189 m
2019/03/24 06:50 EGCC 240650Z AUTO 16004KT 9999 SCT039 01/00 Q1031 NOSIG
 
EGXP - Scampton Raf, United Kingdom
Distance from station: ENE 40mi, 65km
Updated: 24/03/2019 06:50
Clear
Clear
 Wind from W
Wind: W 5 mph , 7 km/h
Temperature: 2°C
Wind Chill: 0°C
Dew Point: 1°C
Humidity: 93%
Barometer: 1030 hPa
Clouds: Clear
Visibility: 6 miles , 10 km
2019/03/24 06:50 EGXP 240650Z AUTO 27004KT 9999 // NCD 02/01 Q1030
EGXW - Waddington Raf, United Kingdom
Distance from station: E 40mi, 65km
Updated: 24/03/2019 06:50
Clear
Clear
 Wind from WSW
Wind: WSW 6 mph , 9 km/h
Temperature: 4°C
Wind Chill: 2°C
Dew Point: 2°C
Humidity: 87%
Barometer: 1030 hPa
Clouds: Clear
Visibility: 6 miles , 10 km
2019/03/24 06:50 EGXW 240650Z AUTO 25005KT 9999 NCD 04/02 Q1030